Time;durP1;ratioP1;P1;durP2;ratioP2;P2;SDS_P1;SDS_P2;PMS_P1;PMS_P2;Temp;Humidity;BMP_temperature;BMP_pressure;BME280_temperature;BME280_humidity;BME280_pressure;Samples;Min_cycle;Max_cycle;Signal;HPM_P1;HPM_P2
2022/07/30 00:02:15;;;;;;;9.57;5.60;;;16.60;99.90;;;;;;5076648;28;20052;-81
2022/07/30 00:04:41;;;;;;;5.78;4.90;;;16.60;99.90;;;;;;5077212;28;20070;-81
2022/07/30 00:07:07;;;;;;;8.30;5.32;;;16.50;99.90;;;;;;5075568;28;20041;-81
2022/07/30 00:09:32;;;;;;;5.97;4.83;;;16.40;99.90;;;;;;5075935;28;20101;-81
2022/07/30 00:11:58;;;;;;;11.23;5.20;;;16.50;99.90;;;;;;5076752;28;20127;-81
2022/07/30 00:14:25;;;;;;;8.60;6.20;;;16.80;99.90;;;;;;5059251;28;20553;-81
2022/07/30 00:16:51;;;;;;;11.20;5.38;;;16.90;99.90;;;;;;5076741;28;20416;-82
2022/07/30 00:19:16;;;;;;;9.57;5.00;;;16.40;99.90;;;;;;5076605;28;20094;-81
2022/07/30 00:21:42;;;;;;;7.33;4.63;;;16.60;99.90;;;;;;5076275;28;20040;-80
2022/07/30 00:24:08;;;;;;;8.10;5.03;;;16.40;99.90;;;;;;5076849;28;20435;-81
2022/07/30 00:26:33;;;;;;;6.63;4.40;;;16.30;99.90;;;;;;5057837;28;20131;-81
2022/07/30 00:28:59;;;;;;;6.17;4.60;;;16.30;99.90;;;;;;5075428;28;20040;-81
2022/07/30 00:31:24;;;;;;;6.77;4.10;;;16.30;99.90;;;;;;5076117;28;20094;-81
2022/07/30 00:33:50;;;;;;;6.07;3.80;;;16.20;99.90;;;;;;5075969;28;20045;-81
2022/07/30 00:36:16;;;;;;;8.07;3.90;;;16.30;99.90;;;;;;5075712;28;20198;-80
2022/07/30 00:38:41;;;;;;;7.63;4.43;;;16.20;99.90;;;;;;5075054;28;20067;-81
2022/07/30 00:41:07;;;;;;;7.97;4.20;;;16.20;99.90;;;;;;5075733;28;20369;-80
2022/07/30 00:43:33;;;;;;;7.77;4.07;;;16.20;99.90;;;;;;5074625;28;20040;-81
2022/07/30 00:45:58;;;;;;;5.40;3.80;;;16.10;99.90;;;;;;5074589;28;20070;-80
2022/07/30 00:48:24;;;;;;;6.83;4.07;;;16.10;99.90;;;;;;5074624;28;20045;-80
2022/07/30 00:50:50;;;;;;;8.80;3.70;;;16.10;99.90;;;;;;5075986;28;20045;-80
2022/07/30 00:53:16;;;;;;;7.03;4.50;;;16.00;99.90;;;;;;5074739;28;20052;-80
2022/07/30 00:55:41;;;;;;;5.93;3.90;;;15.90;99.90;;;;;;5058332;28;20045;-79
2022/07/30 00:58:07;;;;;;;6.30;3.83;;;15.90;99.90;;;;;;5075662;28;20045;-79
2022/07/30 01:00:32;;;;;;;6.80;3.80;;;16.00;99.90;;;;;;5075496;28;20384;-80
2022/07/30 01:02:58;;;;;;;6.30;4.10;;;15.90;99.90;;;;;;5074159;28;20040;-80
2022/07/30 01:05:23;;;;;;;6.10;3.87;;;15.90;99.90;;;;;;5075349;28;20503;-79
2022/07/30 01:07:50;;;;;;;7.37;4.17;;;15.90;99.90;;;;;;5075427;28;20063;-80
2022/07/30 01:10:16;;;;;;;9.88;4.10;;;15.90;99.90;;;;;;5074634;28;20399;-79
2022/07/30 01:12:43;;;;;;;6.43;4.10;;;15.80;99.90;;;;;;5075397;28;20075;-80
2022/07/30 01:15:10;;;;;;;8.27;4.00;;;15.80;99.90;;;;;;5075316;28;20059;-81
2022/07/30 01:17:35;;;;;;;;;;;15.80;99.90;;;;;;5075719;28;20412;-79
2022/07/30 01:20:05;;;;;;;8.90;3.65;;;15.80;99.90;;;;;;5075648;28;19927;-80
2022/07/30 01:22:41;;;;;;;7.68;4.07;;;15.80;99.90;;;;;;5075385;28;20079;-80
2022/07/30 01:25:25;;;;;;;7.53;3.83;;;15.80;99.90;;;;;;5075076;28;20044;-79
2022/07/30 01:27:57;;;;;;;7.03;3.90;;;15.80;99.90;;;;;;5075420;28;20048;-80
2022/07/30 01:30:26;;;;;;;8.88;3.92;;;15.70;99.90;;;;;;5075066;28;20040;-80
2022/07/30 01:32:53;;;;;;;8.07;4.18;;;15.70;99.90;;;;;;5074913;28;20080;-80
2022/07/30 01:35:20;;;;;;;;;;;15.60;99.90;;;;;;5075260;28;20045;-80
2022/07/30 01:37:46;;;;;;;8.82;4.28;;;15.70;99.90;;;;;;5074682;28;19978;-80
2022/07/30 01:40:13;;;;;;;4.70;3.90;;;15.60;99.90;;;;;;5074080;28;20045;-80
2022/07/30 01:42:40;;;;;;;5.47;3.90;;;15.60;99.90;;;;;;5074766;28;20067;-80
2022/07/30 01:45:08;;;;;;;6.65;3.67;;;15.50;99.90;;;;;;5074788;28;20059;-80
2022/07/30 01:47:37;;;;;;;5.93;3.85;;;15.50;99.90;;;;;;5074661;28;20048;-80
2022/07/30 01:50:07;;;;;;;5.78;3.60;;;15.50;99.90;;;;;;5057192;28;20396;-80
2022/07/30 01:52:35;;;;;;;8.52;4.22;;;15.40;99.90;;;;;;5073456;28;20094;-79
2022/07/30 01:55:02;;;;;;;6.47;4.05;;;15.40;99.90;;;;;;5073644;28;20481;-80
2022/07/30 01:57:29;;;;;;;6.63;4.05;;;15.40;99.90;;;;;;5073441;28;20089;-80
2022/07/30 02:00:00;;;;;;;5.72;3.88;;;15.40;99.90;;;;;;5074379;28;20502;-80
2022/07/30 02:02:26;;;;;;;7.28;3.83;;;15.40;99.90;;;;;;5074396;28;20084;-80
2022/07/30 02:04:52;;;;;;;8.90;4.50;;;15.30;99.90;;;;;;5057096;28;20051;-80
2022/07/30 02:07:47;;;;;;;6.73;4.50;;;15.40;99.90;;;;;;5074402;28;20048;-80
2022/07/30 02:10:44;;;;;;;7.35;4.10;;;15.30;99.90;;;;;;5074096;28;20171;-80
2022/07/30 04:48:19;;;;;;;11.52;8.05;;;14.10;99.90;;;;;;5075367;28;19970;-80
2022/07/30 04:50:50;;;;;;;11.67;8.17;;;14.10;99.90;;;;;;5074441;28;20056;-80
2022/07/30 04:53:18;;;;;;;9.55;8.55;;;14.20;99.90;;;;;;5075809;28;20094;-80
2022/07/30 04:55:47;;;;;;;9.35;8.35;;;14.20;99.90;;;;;;5075622;28;20048;-80
2022/07/30 04:58:15;;;;;;;9.18;6.85;;;14.20;99.90;;;;;;5075840;28;20098;-80
2022/07/30 05:00:43;;;;;;;10.52;9.38;;;14.20;99.90;;;;;;5074307;28;20048;-80
2022/07/30 05:03:11;;;;;;;10.90;8.93;;;14.30;99.90;;;;;;5075385;28;20052;-80
2022/07/30 05:05:38;;;;;;;11.65;9.05;;;14.30;99.90;;;;;;5075173;28;20442;-80
2022/07/30 05:08:04;;;;;;;12.70;9.90;;;14.40;99.90;;;;;;5075492;28;20045;-80
2022/07/30 05:10:30;;;;;;;13.93;11.43;;;14.40;99.90;;;;;;5074751;28;20040;-80
2022/07/30 05:12:56;;;;;;;12.30;11.13;;;14.50;99.90;;;;;;5073627;28;20094;-80
2022/07/30 05:15:22;;;;;;;12.67;11.30;;;14.50;99.90;;;;;;5075498;28;20080;-79
2022/07/30 05:17:48;;;;;;;13.10;11.80;;;14.60;99.90;;;;;;5075000;28;20044;-79
2022/07/30 05:20:14;;;;;;;14.73;12.57;;;14.60;99.90;;;;;;5075020;28;20032;-80
2022/07/30 05:22:40;;;;;;;13.93;11.53;;;14.60;99.90;;;;;;5075144;28;20051;-80
2022/07/30 05:25:06;;;;;;;14.27;12.75;;;14.70;99.90;;;;;;5074339;28;20048;-80
2022/07/30 05:27:32;;;;;;;16.13;13.93;;;14.70;99.90;;;;;;5074867;28;20493;-80
2022/07/30 05:29:57;;;;;;;15.27;12.47;;;14.80;99.90;;;;;;5074046;28;20044;-80
2022/07/30 05:32:23;;;;;;;14.47;12.93;;;14.80;99.90;;;;;;5074871;28;20123;-80
2022/07/30 05:34:48;;;;;;;15.40;13.68;;;15.10;99.90;;;;;;5074502;28;20070;-80
2022/07/30 05:37:14;;;;;;;15.07;13.30;;;14.90;99.90;;;;;;5074872;28;20084;-80
2022/07/30 05:39:39;;;;;;;16.47;14.43;;;15.00;99.90;;;;;;5074697;28;20040;-80
2022/07/30 05:42:05;;;;;;;14.10;12.53;;;15.00;99.90;;;;;;5073832;28;20051;-80
2022/07/30 05:44:31;;;;;;;14.00;12.70;;;15.00;99.90;;;;;;5074535;28;20050;-79
2022/07/30 05:46:56;;;;;;;15.02;13.48;;;15.10;99.90;;;;;;5074226;28;20040;-80
2022/07/30 05:49:22;;;;;;;12.68;11.32;;;15.10;99.90;;;;;;5074396;28;20052;-80
2022/07/30 05:51:48;;;;;;;13.03;11.80;;;15.20;99.90;;;;;;5072959;28;20049;-80
2022/07/30 05:54:13;;;;;;;11.88;10.70;;;15.30;99.90;;;;;;5074425;28;20053;-81
2022/07/30 05:56:40;;;;;;;11.07;10.00;;;15.40;99.90;;;;;;5074427;28;20044;-79
2022/07/30 05:59:05;;;;;;;9.88;8.73;;;15.40;99.90;;;;;;5074349;28;20052;-80
2022/07/30 06:01:31;;;;;;;10.68;9.57;;;15.50;99.90;;;;;;5074186;28;20036;-89
2022/07/30 06:03:57;;;;;;;9.50;8.63;;;15.60;99.90;;;;;;5056739;28;20085;-90
2022/07/30 06:06:22;;;;;;;7.93;7.22;;;15.80;99.90;;;;;;5072882;28;20659;-80
2022/07/30 06:08:49;;;;;;;8.80;8.10;;;16.00;99.90;;;;;;5074075;28;20044;-80
2022/07/30 06:11:14;;;;;;;8.55;7.75;;;16.20;99.90;;;;;;5074036;28;20048;-80
2022/07/30 06:13:40;;;;;;;7.97;7.23;;;16.30;99.90;;;;;;5073181;28;20052;-80
2022/07/30 06:16:06;;;;;;;9.07;8.17;;;16.50;99.90;;;;;;5073220;28;20037;-81
2022/07/30 06:18:31;;;;;;;8.73;7.47;;;16.60;99.90;;;;;;5074081;28;20056;-79
2022/07/30 06:20:57;;;;;;;8.17;7.37;;;16.70;99.90;;;;;;5073199;28;20480;-79
2022/07/30 06:23:23;;;;;;;9.17;7.80;;;16.80;99.90;;;;;;5073600;28;20036;-80
2022/07/30 06:25:49;;;;;;;8.50;7.70;;;17.00;99.90;;;;;;5073388;28;20131;-81
2022/07/30 06:28:16;;;;;;;9.23;7.55;;;17.00;99.90;;;;;;5056478;28;20055;-80
2022/07/30 06:30:44;;;;;;;8.32;7.50;;;17.10;99.90;;;;;;5072822;28;20044;-81
2022/07/30 06:33:10;;;;;;;8.20;7.40;;;17.30;99.90;;;;;;5074151;28;20408;-81
2022/07/30 06:35:36;;;;;;;8.82;6.80;;;17.60;99.90;;;;;;5073924;28;20051;-79
2022/07/30 06:38:01;;;;;;;7.83;7.03;;;17.50;99.90;;;;;;5074115;28;20052;-83
2022/07/30 06:40:27;;;;;;;8.83;7.03;;;17.60;99.90;;;;;;5072899;28;20044;-82
2022/07/30 06:42:53;;;;;;;7.80;5.50;;;17.70;99.90;;;;;;5073084;28;20048;-84
2022/07/30 06:45:18;;;;;;;7.90;6.57;;;17.80;99.90;;;;;;5072916;28;20214;-84
2022/07/30 06:47:44;;;;;;;7.17;6.10;;;18.20;99.90;;;;;;5056198;28;20053;-84
2022/07/30 06:50:10;;;;;;;9.13;7.00;;;18.10;99.90;;;;;;5056039;28;20045;-80
2022/07/30 06:52:35;;;;;;;9.47;6.53;;;18.20;99.90;;;;;;5073937;28;20106;-83
2022/07/30 06:55:01;;;;;;;7.77;5.47;;;18.60;99.90;;;;;;5074362;28;20064;-84
2022/07/30 06:57:27;;;;;;;7.77;7.03;;;18.40;99.90;;;;;;5072941;28;20109;-85
2022/07/30 06:59:52;;;;;;;8.30;7.43;;;18.60;99.90;;;;;;5073342;28;20048;-80
2022/07/30 07:02:18;;;;;;;8.13;7.33;;;18.60;99.90;;;;;;5074238;28;20084;-82
2022/07/30 07:04:43;;;;;;;6.43;5.80;;;18.80;99.90;;;;;;5056907;28;20469;-80
2022/07/30 07:07:09;;;;;;;9.40;7.03;;;18.80;99.90;;;;;;5074019;28;20446;-82
2022/07/30 07:09:35;;;;;;;7.50;5.63;;;18.90;99.90;;;;;;5074463;28;20049;-83
2022/07/30 07:12:00;;;;;;;7.20;6.40;;;19.00;99.90;;;;;;5074648;28;20045;-84
2022/07/30 07:14:26;;;;;;;9.23;7.30;;;19.10;99.90;;;;;;5072798;28;20476;-86
2022/07/30 07:16:52;;;;;;;9.60;8.00;;;19.30;99.90;;;;;;5055769;28;20044;-87
2022/07/30 07:19:17;;;;;;;9.90;8.57;;;19.30;99.90;;;;;;5072233;28;20043;-86
2022/07/30 07:21:43;;;;;;;10.27;9.17;;;19.50;99.90;;;;;;5072612;28;20538;-87
2022/07/30 07:24:09;;;;;;;11.30;8.87;;;19.40;99.90;;;;;;5072361;28;20040;-84
2022/07/30 07:26:35;;;;;;;10.10;8.90;;;19.70;99.90;;;;;;5055528;28;20139;-83
2022/07/30 07:29:01;;;;;;;11.07;8.48;;;19.80;99.90;;;;;;5072829;28;20493;-82
2022/07/30 07:31:27;;;;;;;9.40;8.32;;;19.70;99.90;;;;;;5072093;28;20037;-82
2022/07/30 07:33:56;;;;;;;9.33;8.40;;;19.80;99.90;;;;;;5055672;28;20044;-80
2022/07/30 07:36:22;;;;;;;8.80;8.00;;;19.90;99.90;;;;;;5076381;28;20123;-80
2022/07/30 07:38:47;;;;;;;10.53;7.83;;;20.00;99.90;;;;;;5076120;28;20151;-80
2022/07/30 07:41:13;;;;;;;9.50;7.90;;;20.20;99.90;;;;;;5059542;28;20142;-80
2022/07/30 07:43:39;;;;;;;12.43;8.27;;;20.40;99.90;;;;;;5075706;28;20048;-80
2022/07/30 07:46:05;;;;;;;9.50;5.78;;;20.40;99.90;;;;;;5077148;28;20044;-80
2022/07/30 07:48:31;;;;;;;10.47;8.33;;;20.40;99.90;;;;;;5076404;28;20059;-82
2022/07/30 07:50:57;;;;;;;10.00;6.60;;;20.50;99.90;;;;;;5076858;28;20044;-79
2022/07/30 07:53:23;;;;;;;9.53;6.40;;;20.70;99.90;;;;;;5076801;28;20590;-83
2022/07/30 07:55:48;;;;;;;9.20;8.20;;;20.70;99.90;;;;;;5076046;28;20037;-79
2022/07/30 07:58:14;;;;;;;9.70;7.97;;;20.70;99.90;;;;;;5077077;28;20441;-79
2022/07/30 08:00:40;;;;;;;9.17;7.03;;;20.90;99.90;;;;;;5076739;28;20047;-79
2022/07/30 08:03:05;;;;;;;7.03;5.80;;;20.90;99.90;;;;;;5076593;28;20128;-78
2022/07/30 08:05:31;;;;;;;8.63;7.50;;;21.00;99.90;;;;;;5076609;28;20048;-80
2022/07/30 08:07:57;;;;;;;9.03;6.90;;;21.00;99.90;;;;;;5076466;28;20037;-81
2022/07/30 08:10:23;;;;;;;7.85;6.95;;;21.00;99.90;;;;;;5076954;28;20055;-78
2022/07/30 08:12:49;;;;;;;7.70;6.83;;;20.90;99.90;;;;;;5076477;28;20075;-81
2022/07/30 08:15:14;;;;;;;9.53;7.00;;;21.00;99.90;;;;;;5076473;28;20044;-80
2022/07/30 08:17:41;;;;;;;7.80;6.50;;;21.40;99.90;;;;;;5076297;28;20049;-79
2022/07/30 08:20:07;;;;;;;9.57;7.47;;;21.20;99.90;;;;;;5076162;28;20090;-77
2022/07/30 08:22:33;;;;;;;10.98;7.35;;;21.20;99.90;;;;;;5076774;28;20052;-79
2022/07/30 08:24:59;;;;;;;10.83;7.50;;;21.30;99.90;;;;;;5076019;28;20049;-78
2022/07/30 08:27:25;;;;;;;12.50;6.50;;;21.40;99.90;;;;;;5076104;28;20080;-79
2022/07/30 08:29:50;;;;;;;9.57;6.57;;;21.50;99.90;;;;;;5076026;28;20036;-80
2022/07/30 08:32:16;;;;;;;9.07;6.73;;;21.50;99.90;;;;;;5076100;28;20033;-79
2022/07/30 08:34:42;;;;;;;9.57;6.53;;;21.50;99.90;;;;;;5075904;28;20040;-79
2022/07/30 08:37:08;;;;;;;13.23;8.03;;;21.60;99.90;;;;;;5075957;28;20051;-78
2022/07/30 08:39:33;;;;;;;9.27;6.23;;;21.70;99.90;;;;;;5076290;28;20040;-80
2022/07/30 08:42:00;;;;;;;9.47;6.63;;;21.70;99.90;;;;;;5075097;28;20052;-80
2022/07/30 08:44:27;;;;;;;8.43;6.45;;;21.80;99.90;;;;;;5076035;28;20372;-80
2022/07/30 08:46:55;;;;;;;9.82;6.07;;;21.80;99.90;;;;;;5075151;28;20070;-80
2022/07/30 08:49:22;;;;;;;11.35;6.20;;;21.70;99.90;;;;;;5075876;28;20388;-79
2022/07/30 08:51:49;;;;;;;14.48;7.10;;;21.70;99.90;;;;;;5076043;28;20065;-80
2022/07/30 08:54:15;;;;;;;;;;;21.70;99.90;;;;;;5076201;28;20084;-80
2022/07/30 08:56:41;;;;;;;9.23;5.80;;;21.70;99.90;;;;;;5075662;28;19928;-79
2022/07/30 08:59:06;;;;;;;7.37;5.70;;;21.70;99.90;;;;;;5075572;28;20473;-80
2022/07/30 09:01:32;;;;;;;10.03;5.40;;;21.80;99.90;;;;;;5075317;28;20037;-80
2022/07/30 09:03:58;;;;;;;10.60;6.80;;;21.80;99.90;;;;;;5075498;28;20056;-80
2022/07/30 09:06:23;;;;;;;10.07;6.37;;;22.00;99.90;;;;;;5075569;28;20044;-80
2022/07/30 09:08:49;;;;;;;8.93;5.00;;;22.00;99.90;;;;;;5075331;28;20048;-79
2022/07/30 09:11:15;;;;;;;7.73;4.43;;;22.00;99.90;;;;;;5075428;28;20090;-80
2022/07/30 09:13:41;;;;;;;8.30;4.47;;;22.10;99.90;;;;;;5074114;28;20045;-80
2022/07/30 09:16:24;;;;;;;9.20;4.20;;;22.20;99.90;;;;;;5075196;28;20279;-83
2022/07/30 09:18:51;;;;;;;7.90;4.40;;;22.20;99.90;;;;;;5074488;28;20084;-83
2022/07/30 09:21:22;;;;;;;7.65;4.63;;;22.40;99.90;;;;;;5075592;28;20045;-82
2022/07/30 09:24:02;;;;;;;9.45;4.35;;;22.40;99.90;;;;;;5075099;28;20041;-81
2022/07/30 09:26:29;;;;;;;7.00;3.47;;;22.50;99.90;;;;;;5057543;28;20052;-82
2022/07/30 09:29:13;;;;;;;7.63;3.58;;;22.60;99.90;;;;;;5074957;28;20040;-81
2022/07/30 09:31:55;;;;;;;6.40;3.40;;;22.80;99.90;;;;;;5074208;28;20460;-86
2022/07/30 09:34:26;;;;;;;7.65;3.90;;;22.60;99.90;;;;;;5075146;28;20036;-85
2022/07/30 09:36:52;;;;;;;6.15;3.30;;;22.70;99.90;;;;;;5073583;28;20473;-82
2022/07/30 09:39:47;;;;;;;5.60;3.65;;;22.80;99.90;;;;;;5074759;28;20051;-83
2022/07/30 09:42:24;;;;;;;7.88;3.58;;;22.90;99.90;;;;;;5060471;28;20059;-82
2022/07/30 09:44:50;;;;;;;9.70;3.58;;;23.00;99.90;;;;;;5074006;28;20086;-83
2022/07/30 09:47:30;;;;;;;11.07;3.83;;;23.20;99.90;;;;;;5074632;28;20052;-80
2022/07/30 09:50:12;;;;;;;8.88;3.38;;;23.20;99.90;;;;;;5073540;28;20056;-84
2022/07/30 09:52:43;;;;;;;6.35;3.05;;;23.30;99.90;;;;;;5074647;28;20055;-83
2022/07/30 09:55:09;;;;;;;6.68;3.38;;;23.50;99.90;;;;;;5073765;28;20048;-79
2022/07/30 09:57:52;;;;;;;4.95;2.50;;;23.60;99.90;;;;;;5074433;28;20080;-80
2022/07/30 10:00:21;;;;;;;5.53;2.35;;;23.60;99.90;;;;;;5056737;28;20118;-84
2022/07/30 10:02:46;;;;;;;8.20;2.88;;;23.80;99.90;;;;;;5073379;28;20476;-83
2022/07/30 10:05:14;;;;;;;11.53;2.93;;;23.90;99.90;;;;;;5074584;28;20101;-86
2022/07/30 10:07:59;;;;;;;8.48;2.90;;;24.00;99.90;;;;;;5074381;28;20047;-83
2022/07/30 10:10:28;;;;;;;6.38;2.80;;;24.00;99.90;;;;;;5073280;28;20487;-85
2022/07/30 10:13:02;;;;;;;7.28;2.33;;;24.10;99.90;;;;;;5073106;28;20076;-85
2022/07/30 10:15:31;;;;;;;5.97;2.75;;;24.10;99.90;;;;;;5073125;28;20048;-85
2022/07/30 10:17:57;;;;;;;6.38;2.90;;;24.30;99.90;;;;;;5074269;28;20151;-84
2022/07/30 10:20:23;;;;;;;5.20;2.38;;;24.40;99.90;;;;;;5073342;28;20121;-84
2022/07/30 10:22:50;;;;;;;5.38;1.85;;;24.50;99.90;;;;;;5073060;28;20055;-85
2022/07/30 10:25:20;;;;;;;7.35;2.60;;;24.60;99.90;;;;;;5056257;28;20098;-83
2022/07/30 10:27:47;;;;;;;5.05;2.30;;;24.60;99.90;;;;;;5073782;28;20131;-84
2022/07/30 10:30:13;;;;;;;6.88;2.42;;;24.70;99.90;;;;;;5073776;28;20070;-84
2022/07/30 10:32:39;;;;;;;6.15;2.17;;;24.80;99.90;;;;;;5073684;28;20047;-82
2022/07/30 10:35:06;;;;;;;;;;;24.80;99.90;;;;;;5074317;28;20048;-83
2022/07/30 10:37:34;;;;;;;7.72;2.60;;;25.00;99.90;;;;;;5072588;28;19920;-78
2022/07/30 10:40:06;;;;;;;8.35;2.30;;;25.10;99.90;;;;;;5073768;28;20120;-79
2022/07/30 10:42:46;;;;;;;5.38;2.22;;;25.10;99.90;;;;;;5074025;28;20083;-84
2022/07/30 10:45:11;;;;;;;5.72;2.00;;;25.10;99.90;;;;;;5074397;28;20044;-81
2022/07/30 10:47:38;;;;;;;4.40;2.00;;;25.20;99.90;;;;;;5073975;28;20056;-79
2022/07/30 10:50:13;;;;;;;4.55;1.95;;;25.30;99.90;;;;;;5074542;28;20139;-78
2022/07/30 10:52:45;;;;;;;4.57;1.90;;;25.30;99.90;;;;;;5074488;28;20130;-81
2022/07/30 10:55:13;;;;;;;4.22;1.60;;;25.40;99.90;;;;;;5072857;28;20048;-81
2022/07/30 10:57:58;;;;;;;4.25;2.10;;;25.40;99.90;;;;;;5073412;28;20093;-80
2022/07/30 11:00:24;;;;;;;7.43;2.10;;;25.50;99.90;;;;;;5073155;28;20041;-81
2022/07/30 11:03:12;;;;;;;5.32;1.77;;;25.50;99.90;;;;;;5072161;28;20048;-81
2022/07/30 11:05:39;;;;;;;5.93;2.05;;;25.50;99.30;;;;;;5073201;28;20123;-78
2022/07/30 11:08:27;;;;;;;6.82;2.20;;;25.60;99.90;;;;;;5073480;28;20048;-82
2022/07/30 11:10:52;;;;;;;;;;;25.60;99.90;;;;;;5076102;28;20048;-81
2022/07/30 11:13:47;;;;;;;4.97;2.03;;;25.70;99.90;;;;;;5077614;28;20024;-81
2022/07/30 11:16:12;;;;;;;5.43;1.90;;;25.80;99.50;;;;;;5078083;28;20401;-80
2022/07/30 11:19:05;;;;;;;5.70;2.03;;;25.90;99.20;;;;;;5076455;28;20052;-82
2022/07/30 11:21:31;;;;;;;6.75;1.80;;;26.00;97.70;;;;;;5077413;28;20143;-79
2022/07/30 11:23:58;;;;;;;4.57;2.03;;;26.00;98.30;;;;;;5077297;28;20049;-83
2022/07/30 11:26:38;;;;;;;2.97;1.55;;;26.10;98.20;;;;;;5077343;28;20044;-83
2022/07/30 11:29:33;;;;;;;6.68;1.90;;;26.20;97.90;;;;;;5077117;28;20118;-82
2022/07/30 11:32:31;;;;;;;7.18;2.40;;;26.30;96.30;;;;;;5076872;28;20048;-82
2022/07/30 11:35:16;;;;;;;5.90;2.10;;;26.20;96.90;;;;;;5077214;28;20044;-82
2022/07/30 11:38:08;;;;;;;5.25;2.00;;;26.30;96.30;;;;;;5076670;28;20484;-82
2022/07/30 11:40:35;;;;;;;4.13;2.00;;;26.40;97.30;;;;;;5076954;28;20098;-81
2022/07/30 11:43:15;;;;;;;6.30;2.20;;;26.40;97.60;;;;;;5075485;28;20166;-81
2022/07/30 11:45:41;;;;;;;8.15;2.33;;;26.50;96.70;;;;;;5076816;28;20502;-81
2022/07/30 11:48:10;;;;;;;3.00;1.98;;;26.40;97.30;;;;;;5076892;28;20057;-81
2022/07/30 11:50:36;;;;;;;5.70;2.17;;;26.40;96.60;;;;;;5076611;28;20052;-82
2022/07/30 11:53:05;;;;;;;5.38;2.35;;;26.40;97.20;;;;;;5076663;28;20131;-80
2022/07/30 11:55:39;;;;;;;4.72;1.80;;;26.50;96.00;;;;;;5076582;28;20071;-82
2022/07/30 11:58:07;;;;;;;6.47;1.85;;;26.50;95.90;;;;;;5076784;28;20036;-81
2022/07/30 12:00:46;;;;;;;6.13;2.20;;;26.70;95.70;;;;;;5076318;28;20489;-80
2022/07/30 12:03:16;;;;;;;7.28;1.77;;;26.70;95.90;;;;;;5076419;28;20045;-82
2022/07/30 12:05:42;;;;;;;5.10;1.88;;;26.80;95.70;;;;;;5076237;28;20044;-80
2022/07/30 12:08:09;;;;;;;5.40;1.83;;;26.90;95.60;;;;;;5076250;28;20045;-83
2022/07/30 12:10:35;;;;;;;;;;;27.00;95.00;;;;;;5076727;28;20215;-80
2022/07/30 12:13:20;;;;;;;7.53;1.80;;;27.00;94.50;;;;;;5076617;28;19927;-82
2022/07/30 12:15:47;;;;;;;4.68;1.90;;;27.00;94.80;;;;;;5076088;28;20147;-81
2022/07/30 12:18:23;;;;;;;5.13;1.60;;;27.10;94.50;;;;;;5076177;28;20045;-82
2022/07/30 12:21:12;;;;;;;4.50;1.90;;;27.10;94.20;;;;;;5076447;28;20080;-81
2022/07/30 12:23:42;;;;;;;4.25;1.80;;;27.10;95.40;;;;;;5075868;28;20127;-80
2022/07/30 12:26:08;;;;;;;5.43;1.80;;;27.10;94.50;;;;;;5075971;28;20059;-80
2022/07/30 12:28:35;;;;;;;4.32;1.50;;;27.00;94.30;;;;;;5075716;28;20435;-83
2022/07/30 12:31:03;;;;;;;4.85;1.50;;;26.70;94.60;;;;;;5075738;28;20091;-83
2022/07/30 12:33:29;;;;;;;4.53;1.85;;;26.50;94.60;;;;;;5075943;28;20138;-81
2022/07/30 12:35:59;;;;;;;6.43;1.92;;;26.50;94.70;;;;;;5075786;28;20135;-80
2022/07/30 12:38:28;;;;;;;5.78;1.60;;;26.40;94.30;;;;;;5074910;28;20052;-82
2022/07/30 12:40:56;;;;;;;7.40;1.65;;;26.40;95.10;;;;;;5075763;28;20112;-83
2022/07/30 12:43:53;;;;;;;4.45;1.88;;;26.30;95.10;;;;;;5074443;28;20052;-83
2022/07/30 12:46:25;;;;;;;4.30;1.77;;;26.30;94.20;;;;;;5075843;28;20080;-81
2022/07/30 12:48:53;;;;;;;4.93;1.80;;;26.40;94.70;;;;;;5075768;28;20048;-82
2022/07/30 12:51:21;;;;;;;4.20;1.60;;;26.40;94.40;;;;;;5075735;28;20068;-83
2022/07/30 12:53:47;;;;;;;6.00;1.88;;;26.50;93.60;;;;;;5075560;28;20053;-82
2022/07/30 12:56:19;;;;;;;4.10;1.50;;;26.50;93.70;;;;;;5075456;28;20045;-81
2022/07/30 12:58:45;;;;;;;4.75;1.55;;;26.60;93.30;;;;;;5075658;28;20630;-80
2022/07/30 13:01:12;;;;;;;4.20;1.60;;;26.60;93.90;;;;;;5075364;28;20095;-82
2022/07/30 13:03:40;;;;;;;;;;;26.60;93.80;;;;;;5075693;28;20049;-83
2022/07/30 13:06:17;;;;;;;5.15;1.50;;;26.70;93.80;;;;;;5075215;28;19971;-81
2022/07/30 13:08:54;;;;;;;4.05;1.60;;;26.70;93.00;;;;;;5075624;28;20131;-78
2022/07/30 13:11:23;;;;;;;6.40;1.30;;;26.80;94.00;;;;;;5075491;28;20048;-82
2022/07/30 13:13:49;;;;;;;3.47;1.33;;;26.90;93.20;;;;;;5075079;28;20044;-81
2022/07/30 13:16:16;;;;;;;3.50;1.40;;;27.00;92.70;;;;;;5075153;28;20127;-81
2022/07/30 13:18:42;;;;;;;4.13;1.80;;;26.90;92.40;;;;;;5074835;28;20443;-79
2022/07/30 13:21:08;;;;;;;3.58;1.50;;;26.80;92.00;;;;;;5074731;28;20427;-81
2022/07/30 13:23:35;;;;;;;7.30;1.55;;;26.80;92.60;;;;;;5074212;28;20048;-80
2022/07/30 13:26:02;;;;;;;4.40;1.52;;;26.90;92.40;;;;;;5073515;28;20123;-82
2022/07/30 13:28:27;;;;;;;5.28;1.38;;;27.00;91.80;;;;;;5057298;28;20082;-80
2022/07/30 13:30:55;;;;;;;2.90;1.27;;;26.90;91.70;;;;;;5075087;28;20044;-85
2022/07/30 13:33:21;;;;;;;4.75;1.20;;;26.90;92.20;;;;;;5056803;28;20469;-85
2022/07/30 13:35:47;;;;;;;3.35;1.40;;;27.10;91.60;;;;;;5073428;28;20040;-87
2022/07/30 13:38:12;;;;;;;7.07;1.60;;;27.10;91.90;;;;;;5056933;28;20056;-88
2022/07/30 13:40:38;;;;;;;4.15;1.33;;;27.00;91.50;;;;;;5057233;28;20040;-89
2022/07/30 13:43:04;;;;;;;8.77;1.60;;;27.00;92.00;;;;;;5056856;28;20055;-89
2022/07/30 13:45:30;;;;;;;4.80;1.70;;;26.70;92.60;;;;;;5057092;28;20396;-88
2022/07/30 13:47:55;;;;;;;3.07;1.40;;;26.70;92.70;;;;;;5073104;28;20040;-85
2022/07/30 13:50:22;;;;;;;4.43;1.50;;;26.60;93.30;;;;;;5073324;28;20385;-89
2022/07/30 13:52:48;;;;;;;4.80;1.80;;;26.60;93.50;;;;;;5073524;28;20150;-87
2022/07/30 13:55:15;;;;;;;3.28;1.38;;;26.50;93.10;;;;;;5056335;28;20056;-90
2022/07/30 13:57:44;;;;;;;3.17;1.40;;;26.50;92.30;;;;;;5073206;28;20048;-91
2022/07/30 14:00:11;;;;;;;3.75;1.33;;;26.40;92.50;;;;;;5056460;28;20040;-87
2022/07/30 14:02:39;;;;;;;4.55;1.33;;;26.50;92.20;;;;;;5056779;28;20131;-92
2022/07/30 14:05:07;;;;;;;4.38;1.60;;;26.60;92.80;;;;;;5056825;28;20453;-91
2022/07/30 14:07:37;;;;;;;3.25;1.20;;;26.60;92.10;;;;;;5057291;28;20041;-89
2022/07/30 14:10:11;;;;;;;3.33;1.38;;;26.70;91.40;;;;;;5072994;28;20615;-90
2022/07/30 14:12:40;;;;;;;3.05;1.45;;;26.70;90.90;;;;;;5056829;28;20408;-91
2022/07/30 14:15:11;;;;;;;4.10;1.30;;;26.60;92.00;;;;;;5056961;28;20051;-91
2022/07/30 14:17:40;;;;;;;2.47;1.20;;;26.50;91.00;;;;;;5073556;28;20435;-90
2022/07/30 14:20:07;;;;;;;3.72;1.50;;;26.40;91.10;;;;;;5056587;28;20098;-88
2022/07/30 14:22:37;;;;;;;5.35;1.50;;;26.30;90.90;;;;;;5056174;28;20485;-89
2022/07/30 14:25:08;;;;;;;5.15;1.55;;;26.30;90.60;;;;;;5055637;28;20123;-88
2022/07/30 14:27:36;;;;;;;2.97;1.20;;;26.20;90.90;;;;;;5073291;28;20124;-91
2022/07/30 14:30:06;;;;;;;3.83;1.17;;;26.20;90.30;;;;;;5056683;28;20052;-92
2022/07/30 14:32:35;;;;;;;3.00;1.27;;;26.20;90.70;;;;;;5056950;28;20447;-92
2022/07/30 14:35:02;;;;;;;2.22;1.13;;;26.20;90.60;;;;;;5073468;28;20051;-92
2022/07/30 14:37:28;;;;;;;4.82;1.10;;;26.10;90.80;;;;;;5056851;28;20480;-90
2022/07/30 14:39:54;;;;;;;5.15;1.40;;;26.10;90.40;;;;;;5056866;28;20048;-89
2022/07/30 14:42:20;;;;;;;3.90;1.17;;;26.10;90.20;;;;;;5056582;28;20049;-91
2022/07/30 14:44:48;;;;;;;3.58;1.25;;;26.00;90.70;;;;;;5055918;28;20397;-90
2022/07/30 14:47:14;;;;;;;3.13;1.00;;;26.00;90.60;;;;;;5056295;28;20044;-90
2022/07/30 14:49:41;;;;;;;4.70;1.40;;;25.90;90.70;;;;;;5056027;28;20044;-91
2022/07/30 14:52:07;;;;;;;6.28;1.05;;;25.90;90.50;;;;;;5056587;28;20040;-90
2022/07/30 14:54:34;;;;;;;5.63;1.17;;;25.90;91.30;;;;;;5073089;28;20051;-92
2022/07/30 14:57:07;;;;;;;2.92;1.17;;;25.90;91.00;;;;;;5056098;28;20049;-90
2022/07/30 14:59:34;;;;;;;2.67;1.10;;;26.00;91.60;;;;;;5055797;28;20056;-90
2022/07/30 15:02:01;;;;;;;3.45;1.30;;;26.10;91.40;;;;;;5072795;28;20076;-90
2022/07/30 15:04:28;;;;;;;3.33;1.10;;;26.30;90.40;;;;;;5056366;28;20052;-92
2022/07/30 15:07:01;;;;;;;1.88;0.90;;;26.40;90.00;;;;;;5056648;28;20045;-90
2022/07/30 15:09:32;;;;;;;3.38;1.30;;;26.40;92.10;;;;;;5073325;28;20556;-83
2022/07/30 15:11:59;;;;;;;3.03;1.23;;;26.40;91.30;;;;;;5073908;28;20053;-89
2022/07/30 15:14:25;;;;;;;3.80;1.38;;;26.50;90.80;;;;;;5056053;28;20048;-89
2022/07/30 15:16:54;;;;;;;3.72;1.35;;;26.50;90.10;;;;;;5056559;28;20055;-87
2022/07/30 15:19:23;;;;;;;3.22;1.13;;;26.50;89.40;;;;;;5059007;28;20033;-88
2022/07/30 15:21:50;;;;;;;3.30;1.38;;;26.60;89.00;;;;;;5079167;28;20051;-86
2022/07/30 15:24:15;;;;;;;3.97;1.10;;;26.70;90.20;;;;;;5075945;28;20082;-87
2022/07/30 15:26:41;;;;;;;1.53;1.00;;;26.70;90.10;;;;;;5060351;28;20135;-87
2022/07/30 15:29:07;;;;;;;2.90;1.10;;;26.80;91.10;;;;;;5057467;28;20048;-82